Woodbury, Minnesota
Current Conditions -  °F | °C
As of 4:53 AM on Wednesday 26 Nov 2014 (Local Time) from KSTP Reporting Station
Overcast Overcast  
Wind Chill: 16°   Ceiling: 1800
Heat Index: 24°   Visibility: 10mi
Dew Point: 15°   Wind: 7mph
Humidity: 69%   Direction: 100°E
Pressure: 30.07"   Gusts: NA
Location:  44.92°N, 92.94°W
Report Text: KSTP 261053Z AUTO 10006KT 10SM OVC018 M04/M09 A3007 RMK AO2 SLP191 T10441094
Loading
Personal Weather Stations






























Interactive Weather Map New forecast layout! Learn more

10-Day Weather Forecast

Advertisements
Track Severe Weather on mobile